sensor_id;sensor_type;location;lat;lon;timestamp;P1;durP1;ratioP1;P2;durP2;ratioP2
33327;SDS011;19692;52.998;9.116;2023-07-29T00:00:45;24.93;;;17.40;;
33327;SDS011;19692;52.998;9.116;2023-07-29T00:03:11;22.13;;;17.80;;
33327;SDS011;19692;52.998;9.116;2023-07-29T00:05:37;21.60;;;15.93;;
33327;SDS011;19692;52.998;9.116;2023-07-29T00:08:04;18.73;;;16.57;;
33327;SDS011;19692;52.998;9.116;2023-07-29T00:10:31;18.70;;;16.90;;
33327;SDS011;19692;52.998;9.116;2023-07-29T00:12:58;21.93;;;18.03;;
33327;SDS011;19692;52.998;9.116;2023-07-29T00:15:24;21.57;;;18.40;;
33327;SDS011;19692;52.998;9.116;2023-07-29T00:17:50;18.53;;;16.50;;
33327;SDS011;19692;52.998;9.116;2023-07-29T00:20:16;21.10;;;16.60;;
33327;SDS011;19692;52.998;9.116;2023-07-29T00:22:41;19.43;;;16.10;;
33327;SDS011;19692;52.998;9.116;2023-07-29T00:25:07;18.90;;;16.07;;
33327;SDS011;19692;52.998;9.116;2023-07-29T00:27:33;21.07;;;16.93;;
33327;SDS011;19692;52.998;9.116;2023-07-29T00:29:59;19.20;;;16.03;;
33327;SDS011;19692;52.998;9.116;2023-07-29T00:32:25;20.57;;;15.93;;
33327;SDS011;19692;52.998;9.116;2023-07-29T00:34:54;20.77;;;16.83;;
33327;SDS011;19692;52.998;9.116;2023-07-29T00:37:20;19.40;;;15.67;;
33327;SDS011;19692;52.998;9.116;2023-07-29T00:39:46;19.13;;;15.07;;
33327;SDS011;19692;52.998;9.116;2023-07-29T00:42:12;20.07;;;15.87;;
33327;SDS011;19692;52.998;9.116;2023-07-29T00:44:37;18.70;;;15.37;;
33327;SDS011;19692;52.998;9.116;2023-07-29T00:47:03;18.87;;;15.70;;
33327;SDS011;19692;52.998;9.116;2023-07-29T00:49:31;18.13;;;16.07;;
33327;SDS011;19692;52.998;9.116;2023-07-29T00:51:57;19.93;;;16.13;;
33327;SDS011;19692;52.998;9.116;2023-07-29T00:54:23;22.70;;;16.67;;
33327;SDS011;19692;52.998;9.116;2023-07-29T00:56:49;17.67;;;15.67;;
33327;SDS011;19692;52.998;9.116;2023-07-29T00:59:15;18.43;;;16.33;;
33327;SDS011;19692;52.998;9.116;2023-07-29T01:01:41;24.27;;;16.77;;
33327;SDS011;19692;52.998;9.116;2023-07-29T01:04:07;25.13;;;16.73;;
33327;SDS011;19692;52.998;9.116;2023-07-29T01:14:59;22.83;;;17.03;;
33327;SDS011;19692;52.998;9.116;2023-07-29T01:17:39;20.23;;;16.73;;
33327;SDS011;19692;52.998;9.116;2023-07-29T01:20:13;20.50;;;16.47;;
33327;SDS011;19692;52.998;9.116;2023-07-29T01:22:41;18.87;;;16.20;;
33327;SDS011;19692;52.998;9.116;2023-07-29T01:25:07;19.80;;;16.30;;
33327;SDS011;19692;52.998;9.116;2023-07-29T01:27:33;21.93;;;16.47;;
33327;SDS011;19692;52.998;9.116;2023-07-29T01:29:59;22.97;;;17.03;;
33327;SDS011;19692;52.998;9.116;2023-07-29T01:32:29;24.03;;;17.33;;
33327;SDS011;19692;52.998;9.116;2023-07-29T01:35:19;20.53;;;15.77;;
33327;SDS011;19692;52.998;9.116;2023-07-29T01:37:57;20.03;;;15.87;;
33327;SDS011;19692;52.998;9.116;2023-07-29T01:40:35;16.90;;;15.13;;
33327;SDS011;19692;52.998;9.116;2023-07-29T01:43:01;23.07;;;15.53;;
33327;SDS011;19692;52.998;9.116;2023-07-29T01:45:27;22.37;;;14.70;;
33327;SDS011;19692;52.998;9.116;2023-07-29T01:47:56;18.87;;;15.23;;
33327;SDS011;19692;52.998;9.116;2023-07-29T01:50:28;20.57;;;14.97;;
33327;SDS011;19692;52.998;9.116;2023-07-29T01:52:59;22.97;;;15.27;;
33327;SDS011;19692;52.998;9.116;2023-07-29T01:55:25;17.37;;;15.07;;
33327;SDS011;19692;52.998;9.116;2023-07-29T01:57:51;21.93;;;16.10;;
33327;SDS011;19692;52.998;9.116;2023-07-29T02:00:18;20.73;;;16.03;;
33327;SDS011;19692;52.998;9.116;2023-07-29T02:02:44;21.77;;;16.07;;
33327;SDS011;19692;52.998;9.116;2023-07-29T02:05:10;20.93;;;15.83;;
33327;SDS011;19692;52.998;9.116;2023-07-29T02:07:36;18.73;;;15.77;;
33327;SDS011;19692;52.998;9.116;2023-07-29T02:10:02;19.50;;;16.03;;
33327;SDS011;19692;52.998;9.116;2023-07-29T02:12:28;21.63;;;16.20;;
33327;SDS011;19692;52.998;9.116;2023-07-29T02:14:54;20.40;;;15.93;;
33327;SDS011;19692;52.998;9.116;2023-07-29T02:17:20;19.77;;;15.73;;
33327;SDS011;19692;52.998;9.116;2023-07-29T02:19:46;17.83;;;15.73;;
33327;SDS011;19692;52.998;9.116;2023-07-29T02:22:15;23.87;;;15.57;;
33327;SDS011;19692;52.998;9.116;2023-07-29T02:24:42;25.03;;;16.67;;
33327;SDS011;19692;52.998;9.116;2023-07-29T02:27:09;22.37;;;18.00;;
33327;SDS011;19692;52.998;9.116;2023-07-29T02:29:34;23.63;;;16.77;;
33327;SDS011;19692;52.998;9.116;2023-07-29T02:32:00;19.97;;;16.37;;
33327;SDS011;19692;52.998;9.116;2023-07-29T02:34:26;25.83;;;17.13;;
33327;SDS011;19692;52.998;9.116;2023-07-29T02:36:52;24.30;;;17.50;;
33327;SDS011;19692;52.998;9.116;2023-07-29T02:39:17;20.83;;;16.70;;
33327;SDS011;19692;52.998;9.116;2023-07-29T02:41:43;23.50;;;17.93;;
33327;SDS011;19692;52.998;9.116;2023-07-29T02:44:09;25.27;;;18.30;;
33327;SDS011;19692;52.998;9.116;2023-07-29T02:46:35;24.50;;;18.37;;
33327;SDS011;19692;52.998;9.116;2023-07-29T02:49:04;21.27;;;17.60;;
33327;SDS011;19692;52.998;9.116;2023-07-29T02:51:30;24.37;;;18.70;;
33327;SDS011;19692;52.998;9.116;2023-07-29T02:53:56;26.87;;;18.03;;
33327;SDS011;19692;52.998;9.116;2023-07-29T02:56:22;22.93;;;17.70;;
33327;SDS011;19692;52.998;9.116;2023-07-29T02:58:48;24.03;;;17.57;;
33327;SDS011;19692;52.998;9.116;2023-07-29T03:01:13;22.27;;;17.80;;
33327;SDS011;19692;52.998;9.116;2023-07-29T03:03:39;24.90;;;17.23;;
33327;SDS011;19692;52.998;9.116;2023-07-29T03:06:06;24.87;;;17.40;;
33327;SDS011;19692;52.998;9.116;2023-07-29T03:08:33;24.93;;;17.30;;
33327;SDS011;19692;52.998;9.116;2023-07-29T03:11:04;22.43;;;16.40;;
33327;SDS011;19692;52.998;9.116;2023-07-29T03:13:38;20.30;;;15.77;;
33327;SDS011;19692;52.998;9.116;2023-07-29T03:16:08;22.17;;;15.80;;
33327;SDS011;19692;52.998;9.116;2023-07-29T03:18:39;23.40;;;16.53;;
33327;SDS011;19692;52.998;9.116;2023-07-29T03:21:06;25.13;;;16.63;;
33327;SDS011;19692;52.998;9.116;2023-07-29T03:23:32;20.83;;;16.77;;
33327;SDS011;19692;52.998;9.116;2023-07-29T03:25:59;20.93;;;16.20;;
33327;SDS011;19692;52.998;9.116;2023-07-29T03:28:27;21.70;;;16.17;;
33327;SDS011;19692;52.998;9.116;2023-07-29T03:30:57;20.63;;;15.93;;
33327;SDS011;19692;52.998;9.116;2023-07-29T03:33:24;22.20;;;16.00;;
33327;SDS011;19692;52.998;9.116;2023-07-29T03:35:51;19.33;;;15.93;;
33327;SDS011;19692;52.998;9.116;2023-07-29T03:38:18;21.87;;;15.20;;
33327;SDS011;19692;52.998;9.116;2023-07-29T03:40:44;21.73;;;15.63;;
33327;SDS011;19692;52.998;9.116;2023-07-29T03:43:09;21.60;;;15.43;;
33327;SDS011;19692;52.998;9.116;2023-07-29T03:45:35;21.70;;;15.10;;
33327;SDS011;19692;52.998;9.116;2023-07-29T03:48:02;20.20;;;15.73;;
33327;SDS011;19692;52.998;9.116;2023-07-29T03:50:29;21.70;;;15.80;;
33327;SDS011;19692;52.998;9.116;2023-07-29T03:52:55;19.83;;;16.37;;
33327;SDS011;19692;52.998;9.116;2023-07-29T03:55:21;20.00;;;15.50;;
33327;SDS011;19692;52.998;9.116;2023-07-29T03:57:47;19.50;;;15.30;;
33327;SDS011;19692;52.998;9.116;2023-07-29T04:00:13;20.30;;;15.80;;
33327;SDS011;19692;52.998;9.116;2023-07-29T04:02:39;18.30;;;15.13;;
33327;SDS011;19692;52.998;9.116;2023-07-29T04:05:06;22.13;;;16.07;;
33327;SDS011;19692;52.998;9.116;2023-07-29T04:07:36;23.57;;;16.47;;
33327;SDS011;19692;52.998;9.116;2023-07-29T04:10:03;21.00;;;16.10;;
33327;SDS011;19692;52.998;9.116;2023-07-29T04:12:30;21.07;;;16.00;;
33327;SDS011;19692;52.998;9.116;2023-07-29T04:14:56;22.90;;;15.63;;
33327;SDS011;19692;52.998;9.116;2023-07-29T04:17:22;21.47;;;15.90;;
33327;SDS011;19692;52.998;9.116;2023-07-29T04:19:47;25.07;;;16.33;;
33327;SDS011;19692;52.998;9.116;2023-07-29T04:22:14;18.33;;;16.10;;
33327;SDS011;19692;52.998;9.116;2023-07-29T04:24:40;22.53;;;15.37;;
33327;SDS011;19692;52.998;9.116;2023-07-29T04:27:06;19.17;;;16.60;;
33327;SDS011;19692;52.998;9.116;2023-07-29T04:29:32;24.80;;;15.97;;
33327;SDS011;19692;52.998;9.116;2023-07-29T04:32:00;17.90;;;15.53;;
33327;SDS011;19692;52.998;9.116;2023-07-29T04:34:27;20.63;;;15.80;;
33327;SDS011;19692;52.998;9.116;2023-07-29T04:36:52;19.77;;;15.53;;
33327;SDS011;19692;52.998;9.116;2023-07-29T04:39:18;18.70;;;15.13;;
33327;SDS011;19692;52.998;9.116;2023-07-29T04:41:44;23.57;;;16.13;;
33327;SDS011;19692;52.998;9.116;2023-07-29T04:44:10;23.17;;;16.13;;
33327;SDS011;19692;52.998;9.116;2023-07-29T04:46:36;21.13;;;16.73;;
33327;SDS011;19692;52.998;9.116;2023-07-29T04:49:02;21.87;;;15.87;;
33327;SDS011;19692;52.998;9.116;2023-07-29T04:51:28;19.30;;;15.40;;
33327;SDS011;19692;52.998;9.116;2023-07-29T04:53:54;19.47;;;15.83;;
33327;SDS011;19692;52.998;9.116;2023-07-29T04:56:19;21.30;;;17.13;;
33327;SDS011;19692;52.998;9.116;2023-07-29T04:58:45;22.47;;;15.50;;
33327;SDS011;19692;52.998;9.116;2023-07-29T05:01:11;21.90;;;15.47;;
33327;SDS011;19692;52.998;9.116;2023-07-29T05:03:37;23.83;;;16.83;;
33327;SDS011;19692;52.998;9.116;2023-07-29T05:06:04;21.73;;;16.20;;
33327;SDS011;19692;52.998;9.116;2023-07-29T05:08:30;18.50;;;16.10;;
33327;SDS011;19692;52.998;9.116;2023-07-29T05:10:56;22.63;;;16.47;;
33327;SDS011;19692;52.998;9.116;2023-07-29T05:13:22;20.63;;;17.03;;
33327;SDS011;19692;52.998;9.116;2023-07-29T05:15:48;20.70;;;15.70;;
33327;SDS011;19692;52.998;9.116;2023-07-29T05:18:14;21.13;;;16.03;;
33327;SDS011;19692;52.998;9.116;2023-07-29T05:20:41;18.53;;;16.07;;
33327;SDS011;19692;52.998;9.116;2023-07-29T05:23:07;18.03;;;15.50;;
33327;SDS011;19692;52.998;9.116;2023-07-29T05:25:32;19.13;;;15.73;;
33327;SDS011;19692;52.998;9.116;2023-07-29T05:28:01;17.97;;;16.10;;
33327;SDS011;19692;52.998;9.116;2023-07-29T05:30:28;20.93;;;16.07;;
33327;SDS011;19692;52.998;9.116;2023-07-29T05:33:02;17.90;;;16.00;;
33327;SDS011;19692;52.998;9.116;2023-07-29T05:35:29;18.43;;;16.43;;
33327;SDS011;19692;52.998;9.116;2023-07-29T05:37:55;21.10;;;15.97;;
33327;SDS011;19692;52.998;9.116;2023-07-29T05:40:21;18.30;;;16.40;;
33327;SDS011;19692;52.998;9.116;2023-07-29T05:42:46;18.93;;;15.83;;
33327;SDS011;19692;52.998;9.116;2023-07-29T05:45:13;18.07;;;16.17;;
33327;SDS011;19692;52.998;9.116;2023-07-29T05:47:38;18.00;;;16.20;;
33327;SDS011;19692;52.998;9.116;2023-07-29T05:50:04;17.10;;;14.97;;
33327;SDS011;19692;52.998;9.116;2023-07-29T05:52:31;17.17;;;15.37;;
33327;SDS011;19692;52.998;9.116;2023-07-29T05:54:57;17.67;;;14.73;;
33327;SDS011;19692;52.998;9.116;2023-07-29T05:57:23;17.17;;;15.40;;
33327;SDS011;19692;52.998;9.116;2023-07-29T05:59:48;17.37;;;14.80;;
33327;SDS011;19692;52.998;9.116;2023-07-29T06:02:14;19.13;;;15.73;;
33327;SDS011;19692;52.998;9.116;2023-07-29T06:04:40;16.53;;;14.83;;
33327;SDS011;19692;52.998;9.116;2023-07-29T06:07:06;17.33;;;14.57;;
33327;SDS011;19692;52.998;9.116;2023-07-29T06:09:31;16.90;;;15.10;;
33327;SDS011;19692;52.998;9.116;2023-07-29T06:11:57;19.17;;;15.80;;
33327;SDS011;19692;52.998;9.116;2023-07-29T06:14:23;19.10;;;15.43;;
33327;SDS011;19692;52.998;9.116;2023-07-29T06:16:49;17.23;;;14.90;;
33327;SDS011;19692;52.998;9.116;2023-07-29T06:19:15;17.27;;;15.47;;
33327;SDS011;19692;52.998;9.116;2023-07-29T06:21:40;17.33;;;15.53;;
33327;SDS011;19692;52.998;9.116;2023-07-29T06:24:06;22.30;;;17.00;;
33327;SDS011;19692;52.998;9.116;2023-07-29T06:26:32;16.87;;;15.03;;
33327;SDS011;19692;52.998;9.116;2023-07-29T06:29:01;18.10;;;16.30;;
33327;SDS011;19692;52.998;9.116;2023-07-29T06:31:33;17.17;;;15.47;;
33327;SDS011;19692;52.998;9.116;2023-07-29T06:33:59;18.20;;;16.37;;
33327;SDS011;19692;52.998;9.116;2023-07-29T06:36:27;19.97;;;17.93;;
33327;SDS011;19692;52.998;9.116;2023-07-29T06:38:53;18.27;;;16.37;;
33327;SDS011;19692;52.998;9.116;2023-07-29T06:41:19;18.00;;;16.10;;
33327;SDS011;19692;52.998;9.116;2023-07-29T06:43:53;19.93;;;17.93;;
33327;SDS011;19692;52.998;9.116;2023-07-29T06:46:20;19.43;;;17.40;;
33327;SDS011;19692;52.998;9.116;2023-07-29T06:48:46;19.67;;;17.67;;
33327;SDS011;19692;52.998;9.116;2023-07-29T06:51:12;20.37;;;18.27;;
33327;SDS011;19692;52.998;9.116;2023-07-29T06:53:38;20.77;;;18.57;;
33327;SDS011;19692;52.998;9.116;2023-07-29T06:56:03;21.40;;;19.20;;
33327;SDS011;19692;52.998;9.116;2023-07-29T06:58:38;20.03;;;17.93;;
33327;SDS011;19692;52.998;9.116;2023-07-29T07:01:04;20.07;;;18.07;;
33327;SDS011;19692;52.998;9.116;2023-07-29T07:03:29;20.43;;;18.43;;
33327;SDS011;19692;52.998;9.116;2023-07-29T07:05:55;21.27;;;19.07;;
33327;SDS011;19692;52.998;9.116;2023-07-29T07:08:21;24.13;;;20.80;;
33327;SDS011;19692;52.998;9.116;2023-07-29T07:10:47;20.20;;;18.20;;
33327;SDS011;19692;52.998;9.116;2023-07-29T07:13:13;20.57;;;18.47;;
33327;SDS011;19692;52.998;9.116;2023-07-29T07:15:38;23.03;;;20.50;;
33327;SDS011;19692;52.998;9.116;2023-07-29T07:18:04;21.30;;;19.30;;
33327;SDS011;19692;52.998;9.116;2023-07-29T07:20:30;20.33;;;18.37;;
33327;SDS011;19692;52.998;9.116;2023-07-29T07:22:56;20.50;;;18.50;;
33327;SDS011;19692;52.998;9.116;2023-07-29T07:25:22;21.93;;;19.73;;
33327;SDS011;19692;52.998;9.116;2023-07-29T07:27:47;21.27;;;19.17;;
33327;SDS011;19692;52.998;9.116;2023-07-29T07:30:13;21.53;;;19.20;;
33327;SDS011;19692;52.998;9.116;2023-07-29T07:32:39;19.83;;;17.83;;
33327;SDS011;19692;52.998;9.116;2023-07-29T07:35:05;19.47;;;17.63;;
33327;SDS011;19692;52.998;9.116;2023-07-29T07:37:31;19.17;;;17.50;;
33327;SDS011;19692;52.998;9.116;2023-07-29T07:39:57;19.50;;;17.50;;
33327;SDS011;19692;52.998;9.116;2023-07-29T07:42:22;18.60;;;16.90;;
33327;SDS011;19692;52.998;9.116;2023-07-29T07:44:48;19.70;;;16.90;;
33327;SDS011;19692;52.998;9.116;2023-07-29T07:47:14;18.77;;;16.90;;
33327;SDS011;19692;52.998;9.116;2023-07-29T07:49:40;18.13;;;16.33;;
33327;SDS011;19692;52.998;9.116;2023-07-29T07:52:05;16.90;;;14.43;;
33327;SDS011;19692;52.998;9.116;2023-07-29T07:54:31;17.43;;;15.83;;
33327;SDS011;19692;52.998;9.116;2023-07-29T07:56:57;16.50;;;15.10;;
33327;SDS011;19692;52.998;9.116;2023-07-29T07:59:23;17.57;;;15.97;;
33327;SDS011;19692;52.998;9.116;2023-07-29T08:01:49;18.17;;;16.30;;
33327;SDS011;19692;52.998;9.116;2023-07-29T08:04:15;16.23;;;14.63;;
33327;SDS011;19692;52.998;9.116;2023-07-29T08:06:40;19.37;;;17.53;;
33327;SDS011;19692;52.998;9.116;2023-07-29T08:09:06;15.77;;;14.47;;
33327;SDS011;19692;52.998;9.116;2023-07-29T08:11:32;14.57;;;13.27;;
33327;SDS011;19692;52.998;9.116;2023-07-29T08:13:58;14.03;;;12.63;;
33327;SDS011;19692;52.998;9.116;2023-07-29T08:16:24;13.40;;;12.20;;
33327;SDS011;19692;52.998;9.116;2023-07-29T08:18:50;13.50;;;12.40;;
33327;SDS011;19692;52.998;9.116;2023-07-29T08:21:15;13.13;;;11.87;;
33327;SDS011;19692;52.998;9.116;2023-07-29T08:26:32;11.27;;;10.07;;
33327;SDS011;19692;52.998;9.116;2023-07-29T08:28:58;10.93;;;9.93;;
33327;SDS011;19692;52.998;9.116;2023-07-29T08:31:24;10.30;;;9.40;;
33327;SDS011;19692;52.998;9.116;2023-07-29T08:33:59;10.20;;;8.30;;
33327;SDS011;19692;52.998;9.116;2023-07-29T08:36:40;11.37;;;7.93;;
33327;SDS011;19692;52.998;9.116;2023-07-29T08:39:05;8.60;;;7.90;;
33327;SDS011;19692;52.998;9.116;2023-07-29T08:44:47;10.47;;;7.37;;
33327;SDS011;19692;52.998;9.116;2023-07-29T08:47:14;7.80;;;7.10;;
33327;SDS011;19692;52.998;9.116;2023-07-29T08:49:41;7.70;;;6.50;;
33327;SDS011;19692;52.998;9.116;2023-07-29T08:52:09;8.30;;;6.83;;
33327;SDS011;19692;52.998;9.116;2023-07-29T08:54:50;7.20;;;6.60;;
33327;SDS011;19692;52.998;9.116;2023-07-29T08:57:23;9.43;;;6.67;;
33327;SDS011;19692;52.998;9.116;2023-07-29T08:59:51;6.07;;;5.57;;
33327;SDS011;19692;52.998;9.116;2023-07-29T09:02:17;6.80;;;6.10;;
33327;SDS011;19692;52.998;9.116;2023-07-29T09:04:43;5.90;;;5.40;;
33327;SDS011;19692;52.998;9.116;2023-07-29T09:07:09;6.73;;;5.17;;
33327;SDS011;19692;52.998;9.116;2023-07-29T09:09:49;6.03;;;5.40;;
33327;SDS011;19692;52.998;9.116;2023-07-29T09:12:18;5.90;;;5.27;;
33327;SDS011;19692;52.998;9.116;2023-07-29T09:14:44;4.87;;;4.40;;
33327;SDS011;19692;52.998;9.116;2023-07-29T09:17:10;8.33;;;5.30;;
33327;SDS011;19692;52.998;9.116;2023-07-29T09:19:36;7.70;;;6.00;;
33327;SDS011;19692;52.998;9.116;2023-07-29T09:22:02;6.10;;;5.30;;
33327;SDS011;19692;52.998;9.116;2023-07-29T09:24:28;5.70;;;5.27;;
33327;SDS011;19692;52.998;9.116;2023-07-29T09:26:57;6.13;;;5.53;;
33327;SDS011;19692;52.998;9.116;2023-07-29T09:29:23;5.83;;;4.93;;
33327;SDS011;19692;52.998;9.116;2023-07-29T09:31:53;5.80;;;4.47;;
33327;SDS011;19692;52.998;9.116;2023-07-29T09:34:21;6.37;;;5.77;;
33327;SDS011;19692;52.998;9.116;2023-07-29T09:36:47;6.43;;;5.90;;
33327;SDS011;19692;52.998;9.116;2023-07-29T09:39:16;7.87;;;5.90;;
33327;SDS011;19692;52.998;9.116;2023-07-29T09:41:45;7.30;;;6.60;;
33327;SDS011;19692;52.998;9.116;2023-07-29T09:44:14;8.07;;;7.37;;
33327;SDS011;19692;52.998;9.116;2023-07-29T09:46:40;8.60;;;7.80;;
33327;SDS011;19692;52.998;9.116;2023-07-29T09:49:17;11.10;;;7.27;;
33327;SDS011;19692;52.998;9.116;2023-07-29T09:51:43;8.13;;;6.87;;
33327;SDS011;19692;52.998;9.116;2023-07-29T09:54:08;8.77;;;6.27;;
33327;SDS011;19692;52.998;9.116;2023-07-29T09:56:39;11.10;;;8.80;;
33327;SDS011;19692;52.998;9.116;2023-07-29T09:59:09;8.20;;;7.40;;
33327;SDS011;19692;52.998;9.116;2023-07-29T10:01:37;7.70;;;7.00;;
33327;SDS011;19692;52.998;9.116;2023-07-29T10:04:03;9.67;;;8.70;;
33327;SDS011;19692;52.998;9.116;2023-07-29T10:06:29;8.20;;;7.47;;
33327;SDS011;19692;52.998;9.116;2023-07-29T10:08:55;8.40;;;7.70;;
33327;SDS011;19692;52.998;9.116;2023-07-29T10:11:22;8.60;;;7.90;;
33327;SDS011;19692;52.998;9.116;2023-07-29T10:13:50;8.43;;;7.73;;
33327;SDS011;19692;52.998;9.116;2023-07-29T10:16:22;8.87;;;6.90;;
33327;SDS011;19692;52.998;9.116;2023-07-29T10:18:49;7.17;;;6.47;;
33327;SDS011;19692;52.998;9.116;2023-07-29T10:21:17;7.20;;;5.13;;
33327;SDS011;19692;52.998;9.116;2023-07-29T10:23:44;4.87;;;4.33;;
33327;SDS011;19692;52.998;9.116;2023-07-29T10:26:15;5.43;;;4.93;;
33327;SDS011;19692;52.998;9.116;2023-07-29T10:28:46;6.20;;;5.60;;
33327;SDS011;19692;52.998;9.116;2023-07-29T10:31:15;5.50;;;5.00;;
33327;SDS011;19692;52.998;9.116;2023-07-29T10:33:42;4.80;;;4.40;;
33327;SDS011;19692;52.998;9.116;2023-07-29T10:36:09;5.53;;;4.83;;
33327;SDS011;19692;52.998;9.116;2023-07-29T10:38:35;5.93;;;4.40;;
33327;SDS011;19692;52.998;9.116;2023-07-29T10:41:02;4.67;;;4.37;;
33327;SDS011;19692;52.998;9.116;2023-07-29T10:43:37;4.30;;;3.87;;
33327;SDS011;19692;52.998;9.116;2023-07-29T10:51:30;3.50;;;3.20;;
33327;SDS011;19692;52.998;9.116;2023-07-29T10:54:03;2.93;;;2.70;;
33327;SDS011;19692;52.998;9.116;2023-07-29T10:56:40;3.13;;;2.87;;
33327;SDS011;19692;52.998;9.116;2023-07-29T11:01:38;4.67;;;3.00;;
33327;SDS011;19692;52.998;9.116;2023-07-29T11:09:42;3.33;;;3.03;;
33327;SDS011;19692;52.998;9.116;2023-07-29T11:15:04;4.00;;;2.70;;
33327;SDS011;19692;52.998;9.116;2023-07-29T11:17:41;4.03;;;2.93;;
33327;SDS011;19692;52.998;9.116;2023-07-29T11:20:20;3.10;;;2.80;;
33327;SDS011;19692;52.998;9.116;2023-07-29T11:22:52;3.10;;;2.90;;
33327;SDS011;19692;52.998;9.116;2023-07-29T11:25:21;2.77;;;2.50;;
33327;SDS011;19692;52.998;9.116;2023-07-29T11:27:48;3.20;;;2.70;;
33327;SDS011;19692;52.998;9.116;2023-07-29T11:30:16;3.03;;;2.73;;
33327;SDS011;19692;52.998;9.116;2023-07-29T11:32:43;3.17;;;2.80;;
33327;SDS011;19692;52.998;9.116;2023-07-29T11:35:11;3.77;;;2.80;;
33327;SDS011;19692;52.998;9.116;2023-07-29T11:37:42;2.60;;;2.40;;
33327;SDS011;19692;52.998;9.116;2023-07-29T11:40:13;3.13;;;2.73;;
33327;SDS011;19692;52.998;9.116;2023-07-29T11:42:41;4.63;;;2.60;;
33327;SDS011;19692;52.998;9.116;2023-07-29T11:45:07;2.90;;;2.70;;
33327;SDS011;19692;52.998;9.116;2023-07-29T11:47:33;3.10;;;2.90;;
33327;SDS011;19692;52.998;9.116;2023-07-29T11:50:08;2.80;;;2.50;;
33327;SDS011;19692;52.998;9.116;2023-07-29T11:52:43;3.30;;;3.10;;
33327;SDS011;19692;52.998;9.116;2023-07-29T11:55:11;3.50;;;3.20;;
33327;SDS011;19692;52.998;9.116;2023-07-29T11:57:39;3.93;;;3.17;;
33327;SDS011;19692;52.998;9.116;2023-07-29T12:00:07;3.30;;;3.07;;
33327;SDS011;19692;52.998;9.116;2023-07-29T12:02:42;3.33;;;3.13;;
33327;SDS011;19692;52.998;9.116;2023-07-29T12:05:11;3.00;;;2.50;;
33327;SDS011;19692;52.998;9.116;2023-07-29T12:07:39;3.80;;;3.50;;
33327;SDS011;19692;52.998;9.116;2023-07-29T12:10:06;3.40;;;3.20;;
33327;SDS011;19692;52.998;9.116;2023-07-29T12:12:33;3.30;;;3.00;;
33327;SDS011;19692;52.998;9.116;2023-07-29T12:15:10;3.20;;;2.90;;
33327;SDS011;19692;52.998;9.116;2023-07-29T12:17:42;3.50;;;3.20;;
33327;SDS011;19692;52.998;9.116;2023-07-29T12:20:08;3.37;;;3.13;;
33327;SDS011;19692;52.998;9.116;2023-07-29T12:22:35;3.57;;;3.27;;
33327;SDS011;19692;52.998;9.116;2023-07-29T12:25:01;4.27;;;3.87;;
33327;SDS011;19692;52.998;9.116;2023-07-29T12:27:30;3.70;;;3.40;;
33327;SDS011;19692;52.998;9.116;2023-07-29T12:29:56;4.63;;;3.90;;
33327;SDS011;19692;52.998;9.116;2023-07-29T12:32:25;3.57;;;3.37;;
33327;SDS011;19692;52.998;9.116;2023-07-29T12:34:52;4.13;;;3.83;;
33327;SDS011;19692;52.998;9.116;2023-07-29T12:37:18;3.60;;;3.30;;
33327;SDS011;19692;52.998;9.116;2023-07-29T12:39:44;3.30;;;3.07;;
33327;SDS011;19692;52.998;9.116;2023-07-29T12:42:10;4.37;;;2.40;;
33327;SDS011;19692;52.998;9.116;2023-07-29T12:44:37;3.33;;;2.30;;
33327;SDS011;19692;52.998;9.116;2023-07-29T12:47:04;4.07;;;2.50;;
33327;SDS011;19692;52.998;9.116;2023-07-29T12:49:36;4.63;;;2.80;;
33327;SDS011;19692;52.998;9.116;2023-07-29T12:52:02;3.57;;;2.47;;
33327;SDS011;19692;52.998;9.116;2023-07-29T12:54:37;3.10;;;2.77;;
33327;SDS011;19692;52.998;9.116;2023-07-29T12:57:05;2.87;;;2.20;;
33327;SDS011;19692;52.998;9.116;2023-07-29T12:59:31;2.60;;;2.33;;
33327;SDS011;19692;52.998;9.116;2023-07-29T13:01:58;3.27;;;2.50;;
33327;SDS011;19692;52.998;9.116;2023-07-29T13:04:23;4.00;;;2.50;;
33327;SDS011;19692;52.998;9.116;2023-07-29T13:06:49;3.40;;;2.50;;
33327;SDS011;19692;52.998;9.116;2023-07-29T13:09:15;2.47;;;2.27;;
33327;SDS011;19692;52.998;9.116;2023-07-29T13:11:40;2.73;;;2.30;;
33327;SDS011;19692;52.998;9.116;2023-07-29T13:14:06;3.23;;;2.60;;
33327;SDS011;19692;52.998;9.116;2023-07-29T13:16:32;2.63;;;2.37;;
33327;SDS011;19692;52.998;9.116;2023-07-29T13:18:58;2.50;;;2.30;;
33327;SDS011;19692;52.998;9.116;2023-07-29T13:21:23;3.07;;;2.40;;
33327;SDS011;19692;52.998;9.116;2023-07-29T13:23:49;2.67;;;2.47;;
33327;SDS011;19692;52.998;9.116;2023-07-29T13:26:16;2.73;;;2.30;;
33327;SDS011;19692;52.998;9.116;2023-07-29T13:28:42;3.13;;;2.40;;
33327;SDS011;19692;52.998;9.116;2023-07-29T13:31:08;3.03;;;2.10;;
33327;SDS011;19692;52.998;9.116;2023-07-29T13:33:34;2.40;;;2.20;;
33327;SDS011;19692;52.998;9.116;2023-07-29T13:36:00;2.50;;;2.30;;
33327;SDS011;19692;52.998;9.116;2023-07-29T13:38:29;4.57;;;2.67;;
33327;SDS011;19692;52.998;9.116;2023-07-29T13:40:55;2.40;;;2.20;;
33327;SDS011;19692;52.998;9.116;2023-07-29T13:43:21;4.63;;;2.40;;
33327;SDS011;19692;52.998;9.116;2023-07-29T13:45:47;3.13;;;2.83;;
33327;SDS011;19692;52.998;9.116;2023-07-29T13:48:15;2.47;;;2.10;;
33327;SDS011;19692;52.998;9.116;2023-07-29T13:50:41;3.53;;;2.60;;
33327;SDS011;19692;52.998;9.116;2023-07-29T13:53:08;3.20;;;2.30;;
33327;SDS011;19692;52.998;9.116;2023-07-29T13:55:34;2.60;;;2.17;;
33327;SDS011;19692;52.998;9.116;2023-07-29T13:58:00;2.53;;;2.33;;
33327;SDS011;19692;52.998;9.116;2023-07-29T14:00:26;2.87;;;2.30;;
33327;SDS011;19692;52.998;9.116;2023-07-29T14:03:02;3.13;;;2.40;;
33327;SDS011;19692;52.998;9.116;2023-07-29T14:05:28;3.93;;;2.27;;
33327;SDS011;19692;52.998;9.116;2023-07-29T14:07:54;2.53;;;2.33;;
33327;SDS011;19692;52.998;9.116;2023-07-29T14:10:20;2.60;;;2.40;;
33327;SDS011;19692;52.998;9.116;2023-07-29T14:12:45;4.13;;;2.17;;
33327;SDS011;19692;52.998;9.116;2023-07-29T14:15:11;3.33;;;2.30;;
33327;SDS011;19692;52.998;9.116;2023-07-29T14:17:40;3.57;;;2.40;;
33327;SDS011;19692;52.998;9.116;2023-07-29T14:20:06;2.30;;;1.97;;
33327;SDS011;19692;52.998;9.116;2023-07-29T14:22:32;4.50;;;2.30;;
33327;SDS011;19692;52.998;9.116;2023-07-29T14:24:58;3.00;;;2.13;;
33327;SDS011;19692;52.998;9.116;2023-07-29T14:27:23;2.33;;;2.10;;
33327;SDS011;19692;52.998;9.116;2023-07-29T14:29:57;2.20;;;2.07;;
33327;SDS011;19692;52.998;9.116;2023-07-29T14:33:32;3.80;;;2.33;;
33327;SDS011;19692;52.998;9.116;2023-07-29T14:35:58;9.80;;;6.13;;
33327;SDS011;19692;52.998;9.116;2023-07-29T14:38:24;2.50;;;2.30;;
33327;SDS011;19692;52.998;9.116;2023-07-29T14:40:51;2.57;;;2.37;;
33327;SDS011;19692;52.998;9.116;2023-07-29T14:43:19;2.70;;;2.30;;
33327;SDS011;19692;52.998;9.116;2023-07-29T14:45:45;2.47;;;2.23;;
33327;SDS011;19692;52.998;9.116;2023-07-29T14:48:14;3.73;;;2.30;;
33327;SDS011;19692;52.998;9.116;2023-07-29T14:50:39;4.77;;;2.47;;
33327;SDS011;19692;52.998;9.116;2023-07-29T14:53:09;4.97;;;2.47;;
33327;SDS011;19692;52.998;9.116;2023-07-29T14:55:43;2.63;;;2.43;;
33327;SDS011;19692;52.998;9.116;2023-07-29T14:58:19;4.40;;;2.33;;
33327;SDS011;19692;52.998;9.116;2023-07-29T15:00:48;2.80;;;2.50;;
33327;SDS011;19692;52.998;9.116;2023-07-29T15:03:26;2.53;;;2.33;;
33327;SDS011;19692;52.998;9.116;2023-07-29T15:05:57;4.60;;;2.90;;